createdAt,value
2023-03-29T00:01:52.651Z,76.09
2023-03-29T00:06:55.946Z,76.26
2023-03-29T00:12:01.592Z,76.58
2023-03-29T00:17:04.746Z,76.96
2023-03-29T00:22:08.228Z,77.03
2023-03-29T00:27:11.339Z,77.18
2023-03-29T00:32:15.770Z,77.33
2023-03-29T00:37:19.694Z,77.41
2023-03-29T00:42:24.538Z,77.41
2023-03-29T00:47:30.525Z,77.43
2023-03-29T00:52:35.983Z,77.46
2023-03-29T00:57:43.584Z,77.74
2023-03-29T01:02:54.622Z,77.44
2023-03-29T01:08:09.256Z,77.13
2023-03-29T01:13:22.562Z,77.14
2023-03-29T01:18:25.715Z,77.19
2023-03-29T01:24:07.384Z,77.29
2023-03-29T01:29:29.033Z,77.21
2023-03-29T01:34:43.126Z,77.68
2023-03-29T01:39:46.860Z,78.09
2023-03-29T01:45:11.780Z,78.39
2023-03-29T01:50:41.127Z,78.70
2023-03-29T01:55:51.993Z,78.96
2023-03-29T02:00:55.784Z,79.51
2023-03-29T02:06:01.645Z,79.89
2023-03-29T02:11:05.714Z,80.14
2023-03-29T02:16:15.066Z,80.16
2023-03-29T02:21:32.827Z,80.01
2023-03-29T02:26:36.432Z,80.11
2023-03-29T02:32:12.601Z,80.03
2023-03-29T02:37:20.114Z,80.00
2023-03-29T02:42:25.687Z,80.05
2023-03-29T02:47:41.562Z,80.14
2023-03-29T02:52:55.161Z,80.18
2023-03-29T02:57:58.656Z,80.49
2023-03-29T03:03:03.515Z,80.60
2023-03-29T03:08:07.627Z,80.71
2023-03-29T03:13:10.631Z,80.78
2023-03-29T03:18:14.361Z,81.13
2023-03-29T03:23:18.067Z,81.28
2023-03-29T03:28:24.410Z,81.32
2023-03-29T03:33:28.386Z,81.44
2023-03-29T03:38:33.556Z,81.41
2023-03-29T03:43:36.852Z,81.57
2023-03-29T03:48:39.945Z,81.82
2023-03-29T03:53:43.154Z,82.00
2023-03-29T03:58:46.578Z,82.24
2023-03-29T04:03:49.970Z,82.53
2023-03-29T04:08:53.819Z,82.86
2023-03-29T04:13:58.033Z,83.26
2023-03-29T04:19:01.588Z,83.56
2023-03-29T04:24:05.951Z,83.93
2023-03-29T04:29:09.345Z,84.06
2023-03-29T04:34:12.717Z,84.22
2023-03-29T04:39:18.294Z,84.49
2023-03-29T04:44:21.607Z,84.71
2023-03-29T04:49:26.073Z,84.79
2023-03-29T04:54:29.454Z,84.72
2023-03-29T04:59:32.659Z,84.61
2023-03-29T05:04:36.854Z,84.43
2023-03-29T05:09:41.948Z,84.39
2023-03-29T05:14:45.057Z,84.66
2023-03-29T05:19:48.599Z,84.70
2023-03-29T05:24:53.121Z,84.64
2023-03-29T05:29:56.339Z,84.57
2023-03-29T05:34:59.422Z,84.42
2023-03-29T05:40:08.687Z,84.20
2023-03-29T05:45:12.326Z,84.01
2023-03-29T05:50:15.595Z,83.75
2023-03-29T05:55:18.706Z,83.90
2023-03-29T06:00:24.428Z,83.63
2023-03-29T06:05:27.785Z,83.22
2023-03-29T06:10:31.296Z,82.76
2023-03-29T06:15:35.741Z,82.22
2023-03-29T06:20:38.948Z,81.81
2023-03-29T06:25:44.928Z,81.50
2023-03-29T06:30:49.456Z,81.28
2023-03-29T06:35:53.029Z,80.77
2023-03-29T06:41:06.088Z,80.27
2023-03-29T06:46:12.333Z,80.43
2023-03-29T06:51:15.710Z,80.40
2023-03-29T06:56:18.837Z,79.82
2023-03-29T07:01:22.065Z,79.88
2023-03-29T07:06:26.666Z,79.57
2023-03-29T07:11:31.824Z,78.97
2023-03-29T07:16:37.819Z,78.44
2023-03-29T07:21:41.824Z,77.76
2023-03-29T07:27:00.292Z,77.58
2023-03-29T07:32:07.520Z,76.89
2023-03-29T07:37:10.796Z,76.57
2023-03-29T07:42:14.010Z,76.59
2023-03-29T07:47:17.211Z,76.17
2023-03-29T07:52:20.236Z,74.49
2023-03-29T07:57:25.336Z,74.51
2023-03-29T08:02:29.360Z,75.14
2023-03-29T08:07:33.221Z,74.31
2023-03-29T08:12:37.829Z,74.20
2023-03-29T08:17:42.171Z,73.96
2023-03-29T08:22:45.517Z,73.18
2023-03-29T08:27:48.663Z,72.46
2023-03-29T08:32:55.160Z,71.61
2023-03-29T08:37:58.765Z,70.65
2023-03-29T08:43:26.823Z,68.54
2023-03-29T08:48:42.538Z,68.05
2023-03-29T08:54:17.577Z,66.44
2023-03-29T08:59:30.753Z,65.35
2023-03-29T09:04:36.772Z,63.60
2023-03-29T09:09:39.901Z,61.68
2023-03-29T09:15:00.362Z,59.32
2023-03-29T09:20:18.882Z,59.38
2023-03-29T09:25:27.583Z,57.44
2023-03-29T09:30:43.347Z,56.24
2023-03-29T09:36:12.624Z,55.92
2023-03-29T09:41:41.493Z,53.01
2023-03-29T09:47:10.772Z,54.08
2023-03-29T09:52:17.431Z,53.44
2023-03-29T09:57:21.071Z,52.90
2023-03-29T10:02:24.225Z,52.46
2023-03-29T10:07:44.819Z,52.66
2023-03-29T10:12:59.373Z,50.75
2023-03-29T10:18:11.015Z,50.80
2023-03-29T10:23:18.949Z,50.28
2023-03-29T10:28:23.029Z,48.72
2023-03-29T10:33:32.774Z,46.09
2023-03-29T10:38:38.269Z,45.92
2023-03-29T10:43:49.639Z,45.96
2023-03-29T10:48:57.889Z,44.23
2023-03-29T10:54:03.065Z,44.38
2023-03-29T10:59:25.096Z,45.10
2023-03-29T11:04:47.956Z,45.27
2023-03-29T11:10:34.904Z,41.82
2023-03-29T11:16:20.024Z,46.82
2023-03-29T11:21:35.161Z,43.44
2023-03-29T11:27:03.116Z,43.98
2023-03-29T11:32:13.389Z,45.47
2023-03-29T11:37:35.198Z,44.57
2023-03-29T11:42:46.096Z,41.06
2023-03-29T11:47:53.597Z,40.78
2023-03-29T11:53:08.475Z,40.28
2023-03-29T11:58:40.450Z,39.13
2023-03-29T12:03:59.178Z,36.16
2023-03-29T12:09:13.197Z,36.00
2023-03-29T12:14:42.703Z,36.26
2023-03-29T12:20:13.554Z,35.65
2023-03-29T12:25:25.237Z,35.30
2023-03-29T12:30:52.024Z,37.08
2023-03-29T12:36:32.210Z,39.23
2023-03-29T12:41:38.567Z,37.52
2023-03-29T12:46:41.911Z,37.58
2023-03-29T12:51:45.635Z,37.54
2023-03-29T12:56:52.286Z,37.58
2023-03-29T13:02:20.426Z,37.58
2023-03-29T13:07:23.638Z,37.38
2023-03-29T13:12:42.181Z,37.43
2023-03-29T13:18:20.037Z,37.50
2023-03-29T13:23:52.389Z,35.44
2023-03-29T13:29:51.828Z,36.00
2023-03-29T13:35:07.275Z,34.08
2023-03-29T13:40:44.854Z,36.44
2023-03-29T13:45:57.253Z,36.30
2023-03-29T13:51:08.563Z,37.12
2023-03-29T13:56:22.192Z,35.97
2023-03-29T14:01:40.119Z,37.78
2023-03-29T14:06:53.005Z,36.43
2023-03-29T14:12:00.630Z,37.94
2023-03-29T14:17:06.175Z,37.62
2023-03-29T14:22:17.042Z,38.24
2023-03-29T14:27:22.303Z,37.96
2023-03-29T14:32:31.617Z,38.01
2023-03-29T14:37:34.880Z,37.92
2023-03-29T14:42:38.604Z,39.67
2023-03-29T14:47:44.807Z,39.19
2023-03-29T14:52:52.397Z,38.10
2023-03-29T14:57:56.484Z,38.52
2023-03-29T15:03:03.092Z,37.64
2023-03-29T15:08:13.475Z,39.62
2023-03-29T15:13:24.681Z,40.06
2023-03-29T15:18:35.199Z,40.41
2023-03-29T15:23:55.134Z,42.28
2023-03-29T15:29:08.213Z,43.24
2023-03-29T15:34:14.681Z,43.78
2023-03-29T15:39:20.272Z,45.67
2023-03-29T15:44:29.495Z,46.38
2023-03-29T15:49:32.523Z,45.29
2023-03-29T15:54:37.448Z,44.83
2023-03-29T15:59:41.970Z,46.88
2023-03-29T16:04:45.113Z,46.70
2023-03-29T16:09:48.313Z,46.78
2023-03-29T16:14:51.612Z,48.15
2023-03-29T16:19:54.728Z,47.39
2023-03-29T16:24:57.955Z,47.12
2023-03-29T16:30:01.459Z,48.13
2023-03-29T16:35:27.169Z,48.22
2023-03-29T16:40:30.596Z,48.97
2023-03-29T16:45:33.910Z,48.92
2023-03-29T16:50:37.580Z,49.40
2023-03-29T16:55:41.148Z,49.63
2023-03-29T17:00:47.980Z,49.32
2023-03-29T17:05:54.014Z,50.29
2023-03-29T17:10:57.642Z,50.32
2023-03-29T17:16:01.540Z,50.40
2023-03-29T17:21:07.289Z,50.79
2023-03-29T17:26:12.174Z,51.10
2023-03-29T17:31:16.378Z,51.90
2023-03-29T17:36:24.243Z,51.50
2023-03-29T17:41:30.402Z,51.88
2023-03-29T17:46:34.495Z,52.11
2023-03-29T17:51:37.732Z,52.53
2023-03-29T17:56:41.174Z,53.33
2023-03-29T18:01:44.310Z,53.35
2023-03-29T18:06:49.413Z,52.86
2023-03-29T18:11:52.637Z,53.07
2023-03-29T18:16:57.241Z,53.26
2023-03-29T18:22:01.085Z,53.30
2023-03-29T18:27:04.500Z,53.69
2023-03-29T18:32:08.061Z,54.12
2023-03-29T18:37:15.162Z,54.09
2023-03-29T18:42:20.598Z,54.37
2023-03-29T18:47:23.629Z,54.82
2023-03-29T18:52:27.926Z,54.53
2023-03-29T18:57:31.058Z,54.67
2023-03-29T19:02:34.319Z,54.69
2023-03-29T19:07:38.069Z,54.71
2023-03-29T19:12:41.598Z,54.88
2023-03-29T19:17:45.246Z,54.74
2023-03-29T19:22:48.433Z,54.78
2023-03-29T19:27:51.515Z,55.08
2023-03-29T19:32:54.670Z,55.42
2023-03-29T19:37:58.145Z,55.40
2023-03-29T19:43:01.349Z,55.46
2023-03-29T19:48:04.722Z,55.65
2023-03-29T19:53:09.050Z,56.19
2023-03-29T19:58:12.514Z,55.93
2023-03-29T20:03:16.017Z,56.02
2023-03-29T20:08:19.248Z,56.10
2023-03-29T20:13:35.344Z,56.24
2023-03-29T20:18:40.902Z,56.58
2023-03-29T20:23:44.452Z,57.17
2023-03-29T20:28:47.767Z,57.88
2023-03-29T20:33:50.831Z,58.44
2023-03-29T20:38:56.501Z,58.74
2023-03-29T20:44:00.484Z,59.31
2023-03-29T20:49:09.039Z,59.38
2023-03-29T20:54:14.353Z,59.60
2023-03-29T20:59:18.038Z,60.23
2023-03-29T21:04:21.143Z,60.47
2023-03-29T21:09:25.709Z,60.78
2023-03-29T21:14:30.438Z,60.60
2023-03-29T21:19:33.426Z,60.59
2023-03-29T21:24:36.779Z,60.60
2023-03-29T21:29:39.960Z,60.72
2023-03-29T21:34:43.060Z,60.88
2023-03-29T21:39:46.159Z,61.13
2023-03-29T21:44:49.165Z,61.76
2023-03-29T21:49:52.268Z,61.69
2023-03-29T21:54:55.272Z,62.12
2023-03-29T21:59:58.426Z,62.85
2023-03-29T22:05:01.389Z,62.54
2023-03-29T22:10:12.020Z,62.42
2023-03-29T22:15:16.002Z,62.78
2023-03-29T22:20:20.248Z,62.71
2023-03-29T22:25:24.512Z,62.26
2023-03-29T22:30:27.682Z,62.13
2023-03-29T22:35:30.737Z,62.18
2023-03-29T22:40:33.877Z,62.20
2023-03-29T22:45:37.014Z,62.53
2023-03-29T22:50:43.173Z,62.51
2023-03-29T22:55:46.494Z,62.46
2023-03-29T23:00:51.807Z,61.60
2023-03-29T23:05:58.336Z,60.83
2023-03-29T23:11:03.169Z,60.51
2023-03-29T23:16:07.577Z,60.33
2023-03-29T23:21:10.927Z,60.39
2023-03-29T23:26:14.360Z,60.59
2023-03-29T23:31:20.533Z,60.52
2023-03-29T23:36:25.780Z,60.76
2023-03-29T23:41:30.928Z,60.91
2023-03-29T23:46:34.582Z,60.99
2023-03-29T23:51:39.329Z,61.19
2023-03-29T23:56:42.438Z,61.26
